createdAt,value
2024-01-08T00:01:04.140Z,5.30
2024-01-08T00:03:30.995Z,5.45
2024-01-08T00:05:58.003Z,3.47
2024-01-08T00:08:24.736Z,4.90
2024-01-08T00:10:51.400Z,4.47
2024-01-08T00:13:18.125Z,4.97
2024-01-08T00:15:44.889Z,5.65
2024-01-08T00:18:11.707Z,5.03
2024-01-08T00:20:38.457Z,8.82
2024-01-08T00:23:05.184Z,6.78
2024-01-08T00:25:31.859Z,6.18
2024-01-08T00:27:58.555Z,4.40
2024-01-08T00:30:26.167Z,6.00
2024-01-08T00:32:53.837Z,5.07
2024-01-08T00:35:22.887Z,4.97
2024-01-08T00:37:49.619Z,5.82
2024-01-08T00:40:16.418Z,3.88
2024-01-08T00:42:43.045Z,4.97
2024-01-08T00:45:09.875Z,5.10
2024-01-08T00:47:36.980Z,4.70
2024-01-08T00:50:06.623Z,5.85
2024-01-08T00:52:33.395Z,5.07
2024-01-08T00:55:06.220Z,7.93
2024-01-08T01:17:43.096Z,5.28
2024-01-08T01:20:10.335Z,5.87
2024-01-08T01:22:37.050Z,5.30
2024-01-08T01:25:04.128Z,2.65
2024-01-08T01:27:30.720Z,5.77
2024-01-08T01:29:57.490Z,5.15
2024-01-08T01:32:24.302Z,5.53
2024-01-08T01:34:50.970Z,7.55
2024-01-08T01:37:17.733Z,5.47
2024-01-08T01:39:44.396Z,5.57
2024-01-08T01:42:12.076Z,5.82
2024-01-08T01:44:40.147Z,5.82
2024-01-08T01:47:07.095Z,7.13
2024-01-08T01:49:34.049Z,7.57
2024-01-08T01:52:00.808Z,5.57
2024-01-08T01:54:28.997Z,6.78
2024-01-08T01:57:01.481Z,7.07
2024-01-08T01:59:30.238Z,6.13
2024-01-08T02:02:01.875Z,4.78
2024-01-08T02:04:31.705Z,6.60
2024-01-08T02:07:00.681Z,5.22
2024-01-08T02:09:28.371Z,6.05
2024-01-08T02:11:55.995Z,5.10
2024-01-08T02:14:22.773Z,6.07
2024-01-08T02:16:50.613Z,5.82
2024-01-08T02:21:44.294Z,6.15
2024-01-08T02:24:11.879Z,6.53
2024-01-08T02:26:38.700Z,5.78
2024-01-08T02:29:06.238Z,2.53
2024-01-08T02:31:35.656Z,6.40
2024-01-08T02:34:02.427Z,5.63
2024-01-08T02:36:29.118Z,5.22
2024-01-08T02:38:55.754Z,4.97
2024-01-08T02:41:22.406Z,5.65
2024-01-08T02:43:49.166Z,6.38
2024-01-08T02:46:15.857Z,6.68
2024-01-08T02:48:42.709Z,5.47
2024-01-08T02:51:09.468Z,7.30
2024-01-08T02:53:36.234Z,6.35
2024-01-08T02:56:03.007Z,5.35
2024-01-08T02:58:29.691Z,7.00
2024-01-08T03:00:57.146Z,5.10
2024-01-08T03:03:23.961Z,5.40
2024-01-08T03:05:50.657Z,5.85
2024-01-08T03:08:18.468Z,5.68
2024-01-08T03:10:45.221Z,4.63
2024-01-08T03:13:11.892Z,8.18
2024-01-08T03:15:38.491Z,5.20
2024-01-08T03:18:05.327Z,5.13
2024-01-08T03:20:32.232Z,4.90
2024-01-08T03:22:58.900Z,7.63
2024-01-08T03:25:25.686Z,5.28
2024-01-08T03:27:52.412Z,7.13
2024-01-08T03:30:19.239Z,6.50
2024-01-08T03:32:46.179Z,8.35
2024-01-08T03:35:14.257Z,7.20
2024-01-08T03:40:09.382Z,7.00
2024-01-08T03:42:36.192Z,6.90
2024-01-08T03:45:03.115Z,7.05
2024-01-08T03:47:29.894Z,6.17
2024-01-08T03:49:57.393Z,6.63
2024-01-08T03:52:24.393Z,8.40
2024-01-08T03:54:51.254Z,7.83
2024-01-08T03:57:18.139Z,7.87
2024-01-08T03:59:46.312Z,6.13
2024-01-08T04:02:14.463Z,7.45
2024-01-08T04:04:43.439Z,7.15
2024-01-08T04:07:13.357Z,6.28
2024-01-08T04:09:42.647Z,7.55
2024-01-08T04:12:11.133Z,7.10
2024-01-08T04:14:39.719Z,8.73
2024-01-08T04:17:07.515Z,8.80
2024-01-08T04:19:34.658Z,8.02
2024-01-08T04:22:01.526Z,8.07
2024-01-08T04:24:28.147Z,8.43
2024-01-08T04:26:54.781Z,10.73
2024-01-08T04:29:21.910Z,10.32
2024-01-08T04:31:48.901Z,8.65
2024-01-08T04:34:15.732Z,8.40
2024-01-08T04:36:44.954Z,7.97
2024-01-08T04:39:11.806Z,10.38
2024-01-08T04:41:39.848Z,8.70
2024-01-08T04:44:07.380Z,8.93
2024-01-08T04:46:34.070Z,8.70
2024-01-08T04:49:00.933Z,8.57
2024-01-08T04:51:27.818Z,11.70
2024-01-08T04:53:54.582Z,11.95
2024-01-08T04:56:22.036Z,10.20
2024-01-08T04:58:49.003Z,10.02
2024-01-08T05:01:15.829Z,9.77
2024-01-08T05:03:46.096Z,9.85
2024-01-08T05:06:13.755Z,11.70
2024-01-08T05:08:40.856Z,10.30
2024-01-08T05:11:08.117Z,10.50
2024-01-08T05:13:35.859Z,10.98
2024-01-08T05:16:03.045Z,9.02
2024-01-08T05:18:30.097Z,10.55
2024-01-08T05:20:57.251Z,10.07
2024-01-08T05:23:23.903Z,7.00
2024-01-08T05:25:50.824Z,11.70
2024-01-08T05:28:17.918Z,9.80
2024-01-08T05:30:47.193Z,11.70
2024-01-08T05:33:14.258Z,11.02
2024-01-08T05:35:42.216Z,10.55
2024-01-08T05:38:09.075Z,10.82
2024-01-08T05:40:35.785Z,9.32
2024-01-08T05:43:02.426Z,10.10
2024-01-08T05:45:29.164Z,12.32
2024-01-08T05:47:56.578Z,12.05
2024-01-08T05:50:26.975Z,8.05
2024-01-08T05:52:55.651Z,9.70
2024-01-08T05:55:23.008Z,16.20
2024-01-08T05:57:49.724Z,10.50
2024-01-08T06:00:17.568Z,8.32
2024-01-08T06:05:12.885Z,9.90
2024-01-08T06:07:40.583Z,8.70
2024-01-08T06:10:07.647Z,10.85
2024-01-08T06:12:34.400Z,9.00
2024-01-08T06:15:02.794Z,9.48
2024-01-08T06:17:29.703Z,8.57
2024-01-08T06:19:56.474Z,9.82
2024-01-08T06:22:23.295Z,7.40
2024-01-08T06:24:49.953Z,8.23
2024-01-08T06:27:18.167Z,10.55
2024-01-08T06:29:44.834Z,8.57
2024-01-08T06:32:11.831Z,8.60
2024-01-08T06:34:38.884Z,7.57
2024-01-08T06:37:07.137Z,9.30
2024-01-08T06:39:33.886Z,8.52
2024-01-08T06:42:00.929Z,9.02
2024-01-08T06:44:28.904Z,5.60
2024-01-08T06:46:56.002Z,8.27
2024-01-08T06:49:25.869Z,11.73
2024-01-08T06:51:52.521Z,8.30
2024-01-08T06:54:20.897Z,8.10
2024-01-08T06:56:47.819Z,5.40
2024-01-08T06:59:16.323Z,5.93
2024-01-08T07:01:44.244Z,9.38
2024-01-08T07:04:13.790Z,8.48
2024-01-08T07:06:41.067Z,7.88
2024-01-08T07:09:08.119Z,10.23
2024-01-08T07:11:35.294Z,8.20
2024-01-08T07:14:04.986Z,8.18
2024-01-08T07:16:32.990Z,4.72
2024-01-08T07:19:02.124Z,7.28
2024-01-08T07:21:30.428Z,5.80
2024-01-08T07:23:58.018Z,6.13
2024-01-08T07:26:27.797Z,7.70
2024-01-08T07:28:54.863Z,5.90
2024-01-08T07:33:41.420Z,7.75
2024-01-08T07:38:49.053Z,4.70
2024-01-08T07:41:17.284Z,7.30
2024-01-08T07:43:49.200Z,6.15
2024-01-08T07:46:16.115Z,5.70
2024-01-08T07:48:42.866Z,3.30
2024-01-08T07:53:54.874Z,7.03
2024-01-08T07:56:31.005Z,6.40
2024-01-08T07:58:59.024Z,7.32
2024-01-08T08:04:09.669Z,8.10
2024-01-08T08:06:40.046Z,6.63
2024-01-08T08:09:08.027Z,4.80
2024-01-08T08:11:36.242Z,6.28
2024-01-08T08:14:04.191Z,5.10
2024-01-08T08:18:57.880Z,7.00
2024-01-08T08:21:24.643Z,6.33
2024-01-08T08:23:52.338Z,5.55
2024-01-08T08:26:20.335Z,6.05
2024-01-08T08:31:24.533Z,4.60
2024-01-08T08:33:54.448Z,6.43
2024-01-08T08:36:22.675Z,5.80
2024-01-08T08:38:49.530Z,4.20
2024-01-08T08:41:17.949Z,4.95
2024-01-08T08:43:44.783Z,6.35
2024-01-08T08:46:11.430Z,5.25
2024-01-08T08:48:38.239Z,4.68
2024-01-08T08:51:06.711Z,6.30
2024-01-08T08:53:33.443Z,5.85
2024-01-08T08:56:00.319Z,5.80
2024-01-08T08:58:29.922Z,5.85
2024-01-08T09:00:58.281Z,5.85
2024-01-08T09:03:26.703Z,6.28
2024-01-08T09:05:56.303Z,8.35
2024-01-08T09:08:29.630Z,5.95
2024-01-08T09:13:36.771Z,6.45
2024-01-08T09:18:46.647Z,10.73
2024-01-08T09:21:14.223Z,8.23
2024-01-08T09:23:41.880Z,8.45
2024-01-08T09:26:08.976Z,7.85
2024-01-08T09:28:35.820Z,4.47
2024-01-08T09:31:04.906Z,6.55
2024-01-08T09:33:32.339Z,11.38
2024-01-08T09:35:59.460Z,7.05
2024-01-08T09:38:26.809Z,6.70
2024-01-08T09:40:58.817Z,4.40
2024-01-08T09:43:30.483Z,8.13
2024-01-08T09:46:05.002Z,4.72
2024-01-08T09:48:32.870Z,5.35
2024-01-08T09:53:30.062Z,5.97
2024-01-08T09:55:57.768Z,5.47
2024-01-08T09:58:30.691Z,6.28
2024-01-08T10:00:57.353Z,6.40
2024-01-08T10:03:24.463Z,5.22
2024-01-08T10:05:52.213Z,4.40
2024-01-08T10:08:19.611Z,4.40
2024-01-08T10:10:47.298Z,9.02
2024-01-08T10:13:15.902Z,7.32
2024-01-08T10:15:47.390Z,4.50
2024-01-08T10:18:17.920Z,5.30
2024-01-08T10:20:47.901Z,6.40
2024-01-08T10:23:19.267Z,5.45
2024-01-08T10:25:57.343Z,5.78
2024-01-08T10:28:25.205Z,3.63
2024-01-08T10:30:53.872Z,4.22
2024-01-08T10:33:21.257Z,3.42
2024-01-08T10:35:48.130Z,4.70
2024-01-08T10:38:15.404Z,5.57
2024-01-08T10:40:42.096Z,5.70
2024-01-08T10:43:10.193Z,8.73
2024-01-08T10:45:37.249Z,2.58
2024-01-08T10:48:19.534Z,2.97
2024-01-08T10:50:47.842Z,4.35
2024-01-08T10:53:31.446Z,6.20
2024-01-08T10:55:59.988Z,5.20
2024-01-08T10:58:36.470Z,6.00
2024-01-08T11:01:04.484Z,5.53
2024-01-08T11:03:32.078Z,5.63
2024-01-08T11:05:59.793Z,5.88
2024-01-08T11:08:26.990Z,4.30
2024-01-08T11:10:53.961Z,6.37
2024-01-08T11:13:23.991Z,4.60
2024-01-08T11:15:51.175Z,6.05
2024-01-08T11:18:30.727Z,4.23
2024-01-08T11:21:00.463Z,2.28
2024-01-08T11:23:43.581Z,3.00
2024-01-08T11:26:22.379Z,5.72
2024-01-08T11:29:01.892Z,5.30
2024-01-08T11:31:54.404Z,5.18
2024-01-08T11:34:54.349Z,4.85
2024-01-08T11:37:41.798Z,4.05
2024-01-08T11:40:28.650Z,4.78
2024-01-08T11:42:55.405Z,5.07
2024-01-08T11:45:22.942Z,5.10
2024-01-08T11:47:50.520Z,4.97
2024-01-08T11:50:17.476Z,3.53
2024-01-08T11:52:46.221Z,5.15
2024-01-08T11:55:13.543Z,5.57
2024-01-08T11:57:40.810Z,6.40
2024-01-08T12:00:12.576Z,6.40
2024-01-08T12:02:40.972Z,6.90
2024-01-08T12:05:08.519Z,5.80
2024-01-08T12:07:39.584Z,5.43
2024-01-08T12:10:10.850Z,4.40
2024-01-08T12:12:44.808Z,5.15
2024-01-08T12:15:16.305Z,4.43
2024-01-08T12:17:43.247Z,4.80
2024-01-08T12:20:11.420Z,3.30
2024-01-08T12:22:38.272Z,4.07
2024-01-08T12:25:07.583Z,2.30
2024-01-08T12:27:35.362Z,5.22
2024-01-08T12:30:03.981Z,3.10
2024-01-08T12:32:30.866Z,4.18
2024-01-08T12:34:58.662Z,5.13
2024-01-08T12:37:33.761Z,2.60
2024-01-08T12:40:01.341Z,3.78
2024-01-08T12:42:28.857Z,3.47
2024-01-08T12:44:56.419Z,4.00
2024-01-08T12:47:24.362Z,3.60
2024-01-08T12:49:51.824Z,3.75
2024-01-08T12:52:23.924Z,2.05
2024-01-08T12:54:58.302Z,4.40
2024-01-08T12:57:31.285Z,5.78
2024-01-08T12:59:58.942Z,3.45
2024-01-08T13:02:33.167Z,4.85
2024-01-08T13:05:01.899Z,4.53
2024-01-08T13:07:29.147Z,4.55
2024-01-08T13:10:00.286Z,3.83
2024-01-08T13:12:28.140Z,5.38
2024-01-08T13:14:55.825Z,7.90
2024-01-08T13:20:21.761Z,1.83
2024-01-08T13:22:52.938Z,4.53
2024-01-08T13:25:23.440Z,6.97
2024-01-08T13:30:33.806Z,4.28
2024-01-08T13:35:45.135Z,4.72
2024-01-08T13:40:57.044Z,5.05
2024-01-08T13:43:26.837Z,4.65
2024-01-08T13:45:55.162Z,4.72
2024-01-08T13:48:23.881Z,3.22
2024-01-08T13:50:54.545Z,5.07
2024-01-08T13:53:23.672Z,5.32
2024-01-08T13:55:53.588Z,6.50
2024-01-08T13:58:21.322Z,4.07
2024-01-08T14:00:49.641Z,2.75
2024-01-08T14:03:16.993Z,5.43
2024-01-08T14:05:43.838Z,5.68
2024-01-08T14:08:10.632Z,5.03
2024-01-08T14:10:37.327Z,3.47
2024-01-08T14:13:04.639Z,5.28
2024-01-08T14:15:34.545Z,7.93
2024-01-08T14:18:03.837Z,6.07
2024-01-08T14:20:33.213Z,5.47
2024-01-08T14:23:01.100Z,5.50
2024-01-08T14:30:38.137Z,6.28
2024-01-08T14:35:57.808Z,6.45
2024-01-08T14:38:26.075Z,3.83
2024-01-08T14:40:55.316Z,4.40
2024-01-08T14:43:22.289Z,5.40
2024-01-08T14:48:33.815Z,4.47
2024-01-08T14:51:11.408Z,5.15
2024-01-08T14:53:38.457Z,8.20
2024-01-08T14:56:05.600Z,4.53
2024-01-08T14:58:32.711Z,5.80
2024-01-08T15:00:59.514Z,5.30
2024-01-08T15:06:06.792Z,5.47
2024-01-08T15:08:33.770Z,6.80
2024-01-08T15:11:07.432Z,6.90
2024-01-08T15:13:35.895Z,4.68
2024-01-08T15:16:11.535Z,7.03
2024-01-08T15:18:42.251Z,7.22
2024-01-08T15:23:51.427Z,7.63
2024-01-08T15:29:03.142Z,5.45
2024-01-08T15:34:10.886Z,5.90
2024-01-08T15:36:38.745Z,6.75
2024-01-08T15:39:10.373Z,6.38
2024-01-08T15:41:37.182Z,7.38
2024-01-08T15:44:05.482Z,5.85
2024-01-08T15:46:32.359Z,5.13
2024-01-08T15:49:03.447Z,6.82
2024-01-08T15:51:33.656Z,7.40
2024-01-08T15:54:00.546Z,4.50
2024-01-08T15:56:27.446Z,7.68
2024-01-08T15:58:56.678Z,5.70
2024-01-08T16:01:23.388Z,5.72
2024-01-08T16:03:51.470Z,6.57
2024-01-08T16:06:21.673Z,7.60
2024-01-08T16:08:49.792Z,7.63
2024-01-08T16:11:18.472Z,6.18
2024-01-08T16:16:27.797Z,7.20
2024-01-08T16:21:35.694Z,7.72
2024-01-08T16:26:44.896Z,6.70
2024-01-08T16:31:53.786Z,6.88
2024-01-08T16:34:20.773Z,8.30
2024-01-08T16:36:50.088Z,8.10
2024-01-08T16:39:16.955Z,6.45
2024-01-08T16:41:44.056Z,5.22
2024-01-08T16:44:12.886Z,6.15
2024-01-08T16:46:40.850Z,7.38
2024-01-08T16:51:36.406Z,7.80
2024-01-08T16:54:05.751Z,12.50
2024-01-08T16:56:37.488Z,8.63
2024-01-08T16:59:06.620Z,6.93
2024-01-08T17:01:34.750Z,7.13
2024-01-08T17:04:01.850Z,8.60
2024-01-08T17:06:30.063Z,6.53
2024-01-08T17:09:05.374Z,4.85
2024-01-08T17:11:32.183Z,8.52
2024-01-08T17:13:59.354Z,6.60
2024-01-08T17:16:38.813Z,6.95
2024-01-08T17:19:05.923Z,6.95
2024-01-08T17:21:34.319Z,5.05
2024-01-08T17:24:01.262Z,9.90
2024-01-08T17:26:28.322Z,8.70
2024-01-08T17:28:56.857Z,6.97
2024-01-08T17:31:24.990Z,10.77
2024-01-08T17:33:52.005Z,7.38
2024-01-08T17:36:18.939Z,7.27
2024-01-08T17:38:45.978Z,9.10
2024-01-08T17:41:12.784Z,6.33
2024-01-08T17:43:39.910Z,9.80
2024-01-08T17:46:07.004Z,7.23
2024-01-08T17:48:33.756Z,7.30
2024-01-08T17:51:00.970Z,10.05
2024-01-08T17:53:30.567Z,6.82
2024-01-08T17:55:58.775Z,10.30
2024-01-08T17:58:28.287Z,8.73
2024-01-08T18:00:56.144Z,8.52
2024-01-08T18:03:22.812Z,10.63
2024-01-08T18:05:50.437Z,10.20
2024-01-08T18:10:57.815Z,8.70
2024-01-08T18:16:10.181Z,12.15
2024-01-08T18:24:20.247Z,8.02
2024-01-08T18:26:57.487Z,10.25
2024-01-08T18:29:26.429Z,7.38
2024-01-08T18:34:34.220Z,8.30
2024-01-08T18:39:44.303Z,8.60
2024-01-08T18:44:54.484Z,8.73
2024-01-08T18:50:03.176Z,7.82
2024-01-08T18:52:29.844Z,8.65
2024-01-08T18:58:41.222Z,7.30
2024-01-08T19:03:49.335Z,9.45
2024-01-08T19:06:18.706Z,10.10
2024-01-08T19:08:50.364Z,6.93
2024-01-08T19:11:17.219Z,8.60
2024-01-08T19:13:46.789Z,10.13
2024-01-08T19:16:21.138Z,8.55
2024-01-08T19:18:49.841Z,8.70
2024-01-08T19:23:58.588Z,7.60
2024-01-08T19:26:25.547Z,7.57
2024-01-08T19:28:53.780Z,8.37
2024-01-08T19:31:22.963Z,7.88
2024-01-08T19:33:52.133Z,8.05
2024-01-08T19:36:19.979Z,9.00
2024-01-08T19:41:21.576Z,9.27
2024-01-08T19:43:48.266Z,8.55
2024-01-08T19:46:24.317Z,6.93
2024-01-08T19:48:53.362Z,8.52
2024-01-08T19:51:20.148Z,7.18
2024-01-08T19:53:49.028Z,7.20
2024-01-08T19:56:19.296Z,7.88
2024-01-08T19:58:48.131Z,7.32
2024-01-08T20:01:18.089Z,7.90
2024-01-08T20:03:44.922Z,8.93
2024-01-08T20:06:11.762Z,11.63
2024-01-08T20:11:19.564Z,10.52
2024-01-08T20:16:26.908Z,9.43
2024-01-08T20:18:55.796Z,7.93
2024-01-08T20:21:24.552Z,10.30
2024-01-08T20:23:59.746Z,7.85
2024-01-08T20:26:26.511Z,7.72
2024-01-08T20:28:53.838Z,8.48
2024-01-08T20:31:25.751Z,7.97
2024-01-08T20:33:54.393Z,8.85
2024-01-08T20:36:22.616Z,8.65
2024-01-08T20:38:56.917Z,9.35
2024-01-08T20:41:23.748Z,8.90
2024-01-08T20:43:50.401Z,8.73
2024-01-08T20:46:21.135Z,10.73
2024-01-08T20:48:48.368Z,7.75
2024-01-08T20:51:16.509Z,8.98
2024-01-08T20:56:24.017Z,10.52
2024-01-08T20:58:51.714Z,8.25
2024-01-08T21:01:18.482Z,9.05
2024-01-08T21:03:48.183Z,8.90
2024-01-08T21:08:55.745Z,9.00
2024-01-08T21:14:04.619Z,11.15
2024-01-08T21:19:11.864Z,11.95
2024-01-08T21:21:39.259Z,6.80
2024-01-08T21:24:06.461Z,9.43
2024-01-08T21:26:35.943Z,10.90
2024-01-08T21:29:02.769Z,8.20
2024-01-08T21:31:29.449Z,7.15
2024-01-08T21:33:56.270Z,8.95
2024-01-08T21:39:04.392Z,11.60
2024-01-08T21:41:31.091Z,11.82
2024-01-08T21:44:00.003Z,9.90
2024-01-08T21:46:27.080Z,10.35
2024-01-08T21:48:53.973Z,6.70
2024-01-08T21:54:01.522Z,8.48
2024-01-08T21:56:28.267Z,9.45
2024-01-08T21:59:03.548Z,8.43
2024-01-08T22:01:32.855Z,8.48
2024-01-08T22:06:39.975Z,10.20
2024-01-08T22:09:06.651Z,10.15
2024-01-08T22:11:40.973Z,9.38
2024-01-08T22:14:07.679Z,7.85
2024-01-08T22:16:38.109Z,10.68
2024-01-08T22:19:04.898Z,8.23
2024-01-08T22:21:31.672Z,9.90
2024-01-08T22:26:39.121Z,9.27
2024-01-08T22:29:06.885Z,9.10
2024-01-08T22:34:14.599Z,9.75
2024-01-08T22:39:22.726Z,8.60
2024-01-08T22:44:31.071Z,9.00
2024-01-08T22:46:58.023Z,8.55
2024-01-08T22:52:05.408Z,8.75
2024-01-08T22:57:12.710Z,8.88
2024-01-08T22:59:43.100Z,9.87
2024-01-08T23:02:11.905Z,7.97
2024-01-08T23:04:42.254Z,10.05
2024-01-08T23:07:16.601Z,10.65
2024-01-08T23:09:45.932Z,8.50
2024-01-08T23:14:53.112Z,8.25
2024-01-08T23:17:26.941Z,6.13
2024-01-08T23:19:55.694Z,8.50
2024-01-08T23:22:23.512Z,9.07
2024-01-08T23:27:26.148Z,9.38
2024-01-08T23:29:54.007Z,10.30
2024-01-08T23:35:02.608Z,9.55
2024-01-08T23:40:10.656Z,8.82
2024-01-08T23:45:22.808Z,9.68
2024-01-08T23:50:30.934Z,10.70
2024-01-08T23:52:57.615Z,9.73
2024-01-08T23:55:32.258Z,9.65
2024-01-08T23:57:59.038Z,10.25
